Terminal Aerodrome Forecast
Issued by NWS

Home | Current Version | Previous Version | Graphics & Text | Print | Product List | Glossary On
Versions: 1 2 3 4 5 6 7 8 9 10 11 12 13 14 15 16
000
FTUS41 KCLE 240524
TAFFDY
TAF
KFDY 240524Z 2406/2506 06008KT P6SM OVC120
     FM241000 06006KT P6SM BKN070
     FM241500 09008KT P6SM -SHRA OVC035
     FM242100 07010KT 4SM -SHRA OVC015
     FM250200 05012KT 3SM -SHRA OVC008=

USA.gov is the U.S. government's official web portal to all federal, state and local government web resources and services.